createdAt,value
2023-04-27T00:02:22.433Z,63.20
2023-04-27T00:04:51.053Z,63.30
2023-04-27T00:07:20.681Z,63.10
2023-04-27T00:09:48.945Z,63.20
2023-04-27T00:12:17.094Z,63.10
2023-04-27T00:14:45.191Z,63.00
2023-04-27T00:17:13.262Z,63.10
2023-04-27T00:19:42.307Z,63.10
2023-04-27T00:22:11.368Z,63.10
2023-04-27T00:24:41.777Z,63.10
2023-04-27T00:27:09.917Z,63.10
2023-04-27T00:29:42.712Z,63.20
2023-04-27T00:32:11.351Z,63.10
2023-04-27T00:34:39.603Z,63.10
2023-04-27T00:37:07.805Z,63.20
2023-04-27T00:39:36.173Z,63.10
2023-04-27T00:42:05.923Z,63.00
2023-04-27T00:44:34.045Z,63.20
2023-04-27T00:47:02.137Z,63.00
2023-04-27T00:49:30.767Z,63.10
2023-04-27T00:51:58.986Z,63.10
2023-04-27T00:54:40.398Z,63.00
2023-04-27T00:57:10.154Z,63.10
2023-04-27T00:59:40.800Z,63.10
2023-04-27T01:02:09.025Z,63.00
2023-04-27T01:04:37.539Z,62.90
2023-04-27T01:07:05.849Z,62.90
2023-04-27T01:09:33.933Z,62.90
2023-04-27T01:12:03.343Z,62.90
2023-04-27T01:14:32.849Z,62.90
2023-04-27T01:17:01.003Z,62.90
2023-04-27T01:19:29.107Z,62.90
2023-04-27T01:21:57.190Z,62.80
2023-04-27T01:24:26.858Z,62.90
2023-04-27T01:26:54.969Z,62.80
2023-04-27T01:29:23.098Z,62.80
2023-04-27T01:31:51.214Z,62.90
2023-04-27T01:34:19.315Z,62.80
2023-04-27T01:36:47.438Z,62.90
2023-04-27T01:39:15.704Z,62.80
2023-04-27T01:41:45.172Z,62.70
2023-04-27T01:44:13.268Z,62.90
2023-04-27T01:46:41.582Z,62.90
2023-04-27T01:49:09.817Z,62.90
2023-04-27T01:51:40.738Z,62.80
2023-04-27T01:54:08.786Z,62.60
2023-04-27T01:56:36.897Z,62.60
2023-04-27T01:59:06.391Z,62.70
2023-04-27T02:01:34.604Z,62.70
2023-04-27T02:04:02.885Z,62.70
2023-04-27T02:06:31.404Z,62.70
2023-04-27T02:08:59.690Z,62.60
2023-04-27T02:11:27.865Z,62.60
2023-04-27T02:13:55.996Z,62.50
2023-04-27T02:16:25.499Z,62.50
2023-04-27T02:18:54.690Z,62.60
2023-04-27T02:21:23.068Z,62.60
2023-04-27T02:23:51.162Z,62.60
2023-04-27T02:26:19.593Z,62.60
2023-04-27T02:28:48.100Z,62.60
2023-04-27T02:31:16.770Z,62.50
2023-04-27T02:33:46.363Z,62.50
2023-04-27T02:36:14.463Z,62.60
2023-04-27T02:38:42.624Z,62.50
2023-04-27T02:41:10.693Z,62.50
2023-04-27T02:43:38.766Z,62.50
2023-04-27T02:46:06.984Z,62.60
2023-04-27T02:48:35.149Z,62.40
2023-04-27T02:51:06.210Z,62.50
2023-04-27T02:53:34.292Z,62.30
2023-04-27T02:56:02.417Z,62.60
2023-04-27T02:58:31.059Z,62.50
2023-04-27T03:00:59.177Z,62.50
2023-04-27T03:03:27.502Z,62.50
2023-04-27T03:05:55.752Z,62.40
2023-04-27T03:08:25.191Z,62.40
2023-04-27T03:10:53.312Z,62.40
2023-04-27T03:16:11.400Z,62.40
2023-04-27T03:18:39.573Z,62.30
2023-04-27T03:21:09.042Z,62.40
2023-04-27T03:23:38.617Z,62.50
2023-04-27T03:26:09.877Z,62.30
2023-04-27T03:28:38.324Z,62.40
2023-04-27T03:31:07.227Z,62.40
2023-04-27T03:33:35.334Z,62.50
2023-04-27T03:36:04.437Z,62.40
2023-04-27T03:38:32.680Z,62.30
2023-04-27T03:41:02.146Z,62.20
2023-04-27T03:43:33.781Z,62.30
2023-04-27T03:46:01.917Z,62.40
2023-04-27T03:48:30.093Z,62.30
2023-04-27T03:50:58.146Z,62.40
2023-04-27T03:53:26.307Z,62.40
2023-04-27T03:55:54.399Z,62.30
2023-04-27T03:58:23.950Z,62.30
2023-04-27T04:00:52.380Z,62.50
2023-04-27T04:03:23.775Z,62.20
2023-04-27T04:05:51.997Z,62.30
2023-04-27T04:08:20.059Z,62.30
2023-04-27T04:10:48.143Z,62.40
2023-04-27T04:13:16.543Z,62.40
2023-04-27T04:15:46.050Z,62.40
2023-04-27T04:18:14.155Z,62.30
2023-04-27T04:20:42.239Z,62.30
2023-04-27T04:23:10.479Z,62.40
2023-04-27T04:25:40.357Z,62.20
2023-04-27T04:28:08.452Z,62.20
2023-04-27T04:30:36.547Z,62.30
2023-04-27T04:33:06.059Z,62.40
2023-04-27T04:35:39.720Z,62.20
2023-04-27T04:38:08.605Z,62.40
2023-04-27T04:40:37.236Z,62.40
2023-04-27T04:43:05.330Z,62.40
2023-04-27T04:45:33.431Z,62.40
2023-04-27T04:48:02.213Z,62.30
2023-04-27T04:50:31.712Z,62.30
2023-04-27T04:53:00.274Z,62.30
2023-04-27T04:55:28.904Z,62.50
2023-04-27T04:57:56.943Z,62.40
2023-04-27T05:00:25.011Z,62.10
2023-04-27T05:02:53.614Z,62.10
2023-04-27T05:05:21.776Z,62.30
2023-04-27T05:07:51.244Z,62.30
2023-04-27T05:10:19.365Z,62.20
2023-04-27T05:12:47.442Z,62.20
2023-04-27T05:15:16.087Z,62.10
2023-04-27T05:17:44.281Z,62.30
2023-04-27T05:20:12.872Z,62.20
2023-04-27T05:22:41.107Z,62.20
2023-04-27T05:25:11.258Z,62.20
2023-04-27T05:27:39.347Z,62.30
2023-04-27T05:30:08.718Z,62.30
2023-04-27T05:32:37.846Z,62.40
2023-04-27T05:35:06.492Z,62.40
2023-04-27T05:37:34.681Z,62.30
2023-04-27T05:40:04.201Z,62.30
2023-04-27T05:42:34.187Z,62.20
2023-04-27T05:45:02.337Z,62.30
2023-04-27T05:47:30.552Z,62.50
2023-04-27T05:49:58.729Z,62.60
2023-04-27T05:52:30.956Z,62.50
2023-04-27T05:55:04.134Z,62.50
2023-04-27T05:57:33.784Z,62.40
2023-04-27T06:00:01.932Z,62.60
2023-04-27T06:02:30.208Z,62.60
2023-04-27T06:04:58.520Z,62.60
2023-04-27T06:07:26.918Z,62.50
2023-04-27T06:09:55.028Z,62.50
2023-04-27T06:12:23.199Z,62.60
2023-04-27T06:14:52.718Z,62.50
2023-04-27T06:17:22.174Z,62.60
2023-04-27T06:19:50.454Z,62.50
2023-04-27T06:22:18.500Z,62.50
2023-04-27T06:24:46.842Z,62.40
2023-04-27T06:27:14.911Z,62.30
2023-04-27T06:29:42.958Z,62.30
2023-04-27T06:32:12.382Z,62.10
2023-04-27T06:34:40.478Z,62.30
2023-04-27T06:37:08.883Z,62.30
2023-04-27T06:39:37.031Z,62.30
2023-04-27T06:42:05.323Z,62.30
2023-04-27T06:44:33.397Z,62.10
2023-04-27T06:49:58.647Z,62.20
2023-04-27T06:52:26.790Z,62.20
2023-04-27T06:54:55.117Z,62.10
2023-04-27T06:57:23.209Z,62.20
2023-04-27T06:59:51.783Z,62.10
2023-04-27T07:02:19.974Z,62.10
2023-04-27T07:04:51.452Z,62.20
2023-04-27T07:07:21.102Z,62.10
2023-04-27T07:09:49.198Z,62.20
2023-04-27T07:12:17.310Z,62.10
2023-04-27T07:14:45.684Z,62.00
2023-04-27T07:17:13.784Z,62.30
2023-04-27T07:19:41.837Z,62.10
2023-04-27T07:22:13.170Z,62.10
2023-04-27T07:24:45.469Z,62.10
2023-04-27T07:27:13.534Z,62.10
2023-04-27T07:29:42.406Z,62.00
2023-04-27T07:32:10.672Z,62.00
2023-04-27T07:34:51.928Z,62.00
2023-04-27T07:37:21.284Z,62.20
2023-04-27T07:39:53.887Z,61.90
2023-04-27T07:42:23.681Z,61.90
2023-04-27T07:44:52.173Z,61.90
2023-04-27T07:47:20.393Z,62.10
2023-04-27T07:49:48.566Z,61.90
2023-04-27T07:52:16.895Z,62.10
2023-04-27T07:54:45.531Z,62.10
2023-04-27T07:57:15.035Z,62.10
2023-04-27T07:59:43.133Z,62.00
2023-04-27T08:02:19.845Z,62.20
2023-04-27T08:04:49.544Z,62.10
2023-04-27T08:07:18.124Z,62.30
2023-04-27T08:09:46.487Z,62.10
2023-04-27T08:12:16.010Z,62.20
2023-04-27T08:14:44.098Z,62.20
2023-04-27T08:17:17.563Z,62.30
2023-04-27T08:19:45.779Z,62.30
2023-04-27T08:22:13.889Z,62.30
2023-04-27T08:24:42.159Z,62.30
2023-04-27T08:27:12.768Z,62.30
2023-04-27T08:29:46.975Z,62.30
2023-04-27T08:32:15.196Z,62.30
2023-04-27T08:34:44.877Z,62.20
2023-04-27T08:37:12.990Z,62.30
2023-04-27T08:39:41.469Z,62.30
2023-04-27T08:42:12.856Z,62.40
2023-04-27T08:44:42.464Z,62.40
2023-04-27T08:47:10.794Z,62.30
2023-04-27T08:49:41.422Z,62.50
2023-04-27T08:52:12.666Z,62.40
2023-04-27T08:54:40.797Z,62.30
2023-04-27T08:57:12.853Z,62.40
2023-04-27T08:59:42.617Z,62.20
2023-04-27T09:02:19.731Z,62.40
2023-04-27T09:04:47.978Z,62.30
2023-04-27T09:07:16.752Z,62.40
2023-04-27T09:09:44.972Z,62.40
2023-04-27T09:12:17.501Z,62.40
2023-04-27T09:14:58.643Z,62.50
2023-04-27T09:17:28.037Z,62.40
2023-04-27T09:20:08.754Z,62.50
2023-04-27T09:22:44.571Z,62.40
2023-04-27T09:25:12.907Z,62.50
2023-04-27T09:27:41.061Z,62.50
2023-04-27T09:30:21.745Z,62.50
2023-04-27T09:32:53.823Z,62.40
2023-04-27T09:35:25.621Z,62.40
2023-04-27T09:37:54.122Z,62.40
2023-04-27T09:40:24.741Z,62.40
2023-04-27T09:42:52.844Z,62.50
2023-04-27T09:45:22.297Z,62.50
2023-04-27T09:47:50.640Z,62.50
2023-04-27T09:50:18.767Z,62.50
2023-04-27T09:52:47.132Z,62.60
2023-04-27T09:55:17.556Z,62.50
2023-04-27T09:57:55.408Z,62.60
2023-04-27T10:00:32.275Z,62.50
2023-04-27T10:03:09.292Z,62.50
2023-04-27T10:05:45.013Z,62.50
2023-04-27T10:08:13.067Z,62.50
2023-04-27T10:10:44.809Z,62.50
2023-04-27T10:13:21.957Z,62.50
2023-04-27T10:15:52.445Z,62.50
2023-04-27T10:18:31.111Z,62.50
2023-04-27T10:21:10.675Z,62.60
2023-04-27T10:23:47.200Z,62.50
2023-04-27T10:26:15.349Z,62.50
2023-04-27T10:28:45.563Z,62.50
2023-04-27T10:31:16.088Z,62.60
2023-04-27T10:33:44.539Z,62.60
2023-04-27T10:36:15.874Z,62.60
2023-04-27T10:38:44.041Z,62.70
2023-04-27T10:41:15.192Z,62.70
2023-04-27T10:43:59.625Z,62.70
2023-04-27T10:46:29.152Z,62.60
2023-04-27T10:48:57.303Z,62.60
2023-04-27T10:51:26.989Z,62.60
2023-04-27T10:53:55.380Z,62.60
2023-04-27T10:56:24.244Z,62.60
2023-04-27T10:58:52.460Z,62.70
2023-04-27T11:01:29.579Z,62.60
2023-04-27T11:03:59.277Z,62.60
2023-04-27T11:06:28.237Z,62.70
2023-04-27T11:08:56.668Z,62.70
2023-04-27T11:11:25.280Z,62.70
2023-04-27T11:13:53.968Z,62.70
2023-04-27T11:16:22.234Z,62.60
2023-04-27T11:18:57.941Z,62.70
2023-04-27T11:21:29.093Z,62.70
2023-04-27T11:23:58.097Z,62.70
2023-04-27T11:26:27.000Z,62.70
2023-04-27T11:28:59.808Z,62.80
2023-04-27T11:31:28.008Z,62.70
2023-04-27T11:33:56.325Z,62.70
2023-04-27T11:36:26.568Z,62.80
2023-04-27T11:39:00.454Z,62.80
2023-04-27T11:41:34.961Z,62.80
2023-04-27T11:44:07.557Z,62.80
2023-04-27T11:46:37.943Z,62.80
2023-04-27T11:49:06.910Z,62.80
2023-04-27T11:51:35.249Z,62.70
2023-04-27T11:54:05.001Z,62.70
2023-04-27T11:56:37.479Z,62.70
2023-04-27T11:59:05.742Z,62.80
2023-04-27T12:01:37.961Z,62.80
2023-04-27T12:04:06.520Z,62.80
2023-04-27T12:06:34.803Z,62.80
2023-04-27T12:09:05.343Z,62.90
2023-04-27T12:11:33.452Z,62.90
2023-04-27T12:14:02.221Z,62.90
2023-04-27T12:16:30.451Z,62.90
2023-04-27T12:18:58.697Z,62.90
2023-04-27T12:21:26.749Z,62.90
2023-04-27T12:23:54.851Z,63.00
2023-04-27T12:26:24.319Z,62.90
2023-04-27T12:28:52.436Z,62.90
2023-04-27T12:31:27.555Z,63.00
2023-04-27T12:33:56.240Z,63.00
2023-04-27T12:36:24.373Z,63.00
2023-04-27T12:38:52.470Z,63.00
2023-04-27T12:41:20.536Z,63.00
2023-04-27T12:43:50.062Z,63.20
2023-04-27T12:46:19.126Z,63.00
2023-04-27T12:48:47.704Z,63.20
2023-04-27T12:51:16.686Z,63.00
2023-04-27T12:53:44.829Z,63.20
2023-04-27T12:56:12.901Z,63.20
2023-04-27T12:58:41.688Z,63.20
2023-04-27T13:01:15.087Z,63.20
2023-04-27T13:03:52.390Z,63.20
2023-04-27T13:06:20.663Z,63.20
2023-04-27T13:08:48.784Z,63.20
2023-04-27T13:11:17.393Z,63.20
2023-04-27T13:13:45.550Z,63.00
2023-04-27T13:16:16.010Z,63.20
2023-04-27T13:18:47.560Z,63.20
2023-04-27T13:21:16.639Z,63.20
2023-04-27T13:23:44.776Z,63.20
2023-04-27T13:26:12.937Z,63.20
2023-04-27T13:28:41.682Z,63.20
2023-04-27T13:31:09.829Z,63.30
2023-04-27T13:33:40.629Z,63.20
2023-04-27T13:36:09.355Z,63.30
2023-04-27T13:38:37.488Z,63.30
2023-04-27T13:41:05.658Z,63.30
2023-04-27T13:43:33.741Z,63.30
2023-04-27T13:46:01.876Z,63.30
2023-04-27T13:48:30.382Z,63.30
2023-04-27T13:50:59.879Z,63.20
2023-04-27T13:53:28.680Z,63.40
2023-04-27T13:55:57.136Z,63.30
2023-04-27T13:58:26.330Z,63.30
2023-04-27T14:00:54.688Z,63.30
2023-04-27T14:03:23.069Z,63.20
2023-04-27T14:05:51.645Z,63.20
2023-04-27T14:08:21.160Z,63.30
2023-04-27T14:10:52.623Z,63.30
2023-04-27T14:13:20.795Z,63.30
2023-04-27T14:15:49.021Z,63.30
2023-04-27T14:18:17.259Z,63.40
2023-04-27T14:20:46.062Z,63.40
2023-04-27T14:23:14.149Z,63.30
2023-04-27T14:25:43.897Z,63.40
2023-04-27T14:28:19.668Z,63.40
2023-04-27T14:30:47.766Z,63.40
2023-04-27T14:33:16.008Z,63.50
2023-04-27T14:35:44.158Z,63.50
2023-04-27T14:38:12.362Z,63.50
2023-04-27T14:40:41.173Z,63.50
2023-04-27T14:43:10.670Z,63.50
2023-04-27T14:45:50.371Z,63.50
2023-04-27T14:48:20.611Z,63.50
2023-04-27T14:50:48.697Z,63.50
2023-04-27T14:53:16.884Z,63.50
2023-04-27T14:55:45.960Z,63.50
2023-04-27T14:58:15.515Z,63.50
2023-04-27T15:00:46.487Z,63.50
2023-04-27T15:03:23.538Z,63.50
2023-04-27T15:05:51.784Z,63.60
2023-04-27T15:08:19.862Z,63.60
2023-04-27T15:10:47.920Z,63.60
2023-04-27T15:13:17.329Z,63.60
2023-04-27T15:15:46.056Z,63.60
2023-04-27T15:18:14.269Z,63.60
2023-04-27T15:20:43.638Z,63.60
2023-04-27T15:23:12.788Z,63.60
2023-04-27T15:25:40.937Z,63.60
2023-04-27T15:28:11.964Z,63.70
2023-04-27T15:30:41.828Z,63.60
2023-04-27T15:33:10.443Z,63.70
2023-04-27T15:35:44.888Z,63.70
2023-04-27T15:38:14.281Z,63.70
2023-04-27T15:40:42.373Z,63.70
2023-04-27T15:43:10.466Z,63.70
2023-04-27T15:45:38.599Z,63.70
2023-04-27T15:48:08.223Z,63.70
2023-04-27T15:50:36.404Z,63.70
2023-04-27T15:53:04.518Z,63.70
2023-04-27T15:55:32.614Z,63.70
2023-04-27T15:58:00.713Z,63.80
2023-04-27T16:00:28.952Z,63.80
2023-04-27T16:02:57.178Z,63.80
2023-04-27T16:05:26.973Z,63.80
2023-04-27T16:07:55.076Z,63.80
2023-04-27T16:10:23.167Z,63.80
2023-04-27T16:12:51.435Z,63.80
2023-04-27T16:15:19.646Z,63.80
2023-04-27T16:17:47.790Z,63.80
2023-04-27T16:20:16.310Z,63.80
2023-04-27T16:22:45.799Z,63.80
2023-04-27T16:25:21.504Z,63.80
2023-04-27T16:27:49.752Z,63.80
2023-04-27T16:30:17.852Z,63.80
2023-04-27T16:32:46.021Z,63.80
2023-04-27T16:35:14.080Z,63.80
2023-04-27T16:37:42.262Z,63.80
2023-04-27T16:40:12.945Z,63.80
2023-04-27T16:42:41.016Z,63.80
2023-04-27T16:45:10.831Z,63.80
2023-04-27T16:47:39.434Z,63.90
2023-04-27T16:50:08.143Z,63.80
2023-04-27T16:52:36.246Z,63.90
2023-04-27T16:55:04.511Z,63.90
2023-04-27T16:57:34.037Z,63.80
2023-04-27T17:00:02.150Z,63.90
2023-04-27T17:02:30.310Z,63.90
2023-04-27T17:04:59.545Z,63.90
2023-04-27T17:07:32.652Z,63.90
2023-04-27T17:10:00.969Z,63.90
2023-04-27T17:12:29.015Z,63.90
2023-04-27T17:15:05.914Z,63.90
2023-04-27T17:17:34.414Z,63.90
2023-04-27T17:20:02.545Z,63.90
2023-04-27T17:22:30.613Z,63.90
2023-04-27T17:24:58.699Z,63.90
2023-04-27T17:27:26.826Z,63.90
2023-04-27T17:29:56.150Z,63.90
2023-04-27T17:32:27.413Z,63.90
2023-04-27T17:34:55.787Z,63.80
2023-04-27T17:37:23.871Z,63.90
2023-04-27T17:39:53.117Z,63.80
2023-04-27T17:42:21.302Z,63.80
2023-04-27T17:44:49.369Z,63.80
2023-04-27T17:47:18.971Z,63.80
2023-04-27T17:49:55.794Z,63.80
2023-04-27T17:52:23.893Z,63.80
2023-04-27T17:54:52.021Z,63.80
2023-04-27T17:57:21.549Z,63.80
2023-04-27T17:59:50.071Z,63.80
2023-04-27T18:02:18.199Z,63.80
2023-04-27T18:04:46.452Z,63.80
2023-04-27T18:07:27.306Z,63.70
2023-04-27T18:09:56.574Z,63.70
2023-04-27T18:12:24.663Z,63.70
2023-04-27T18:14:52.771Z,63.70
2023-04-27T18:17:21.097Z,63.60
2023-04-27T18:19:57.961Z,63.60
2023-04-27T18:22:35.874Z,63.60
2023-04-27T18:25:04.010Z,63.60
2023-04-27T18:27:32.967Z,63.60
2023-04-27T18:30:01.159Z,63.60
2023-04-27T18:32:29.470Z,63.60
2023-04-27T18:34:57.615Z,63.70
2023-04-27T18:37:25.757Z,63.60
2023-04-27T18:39:55.684Z,63.60
2023-04-27T18:42:24.277Z,63.60
2023-04-27T18:44:54.723Z,63.70
2023-04-27T18:47:22.901Z,63.60
2023-04-27T18:49:51.183Z,63.60
2023-04-27T18:52:19.219Z,63.60
2023-04-27T18:54:47.264Z,63.50
2023-04-27T18:57:16.824Z,63.60
2023-04-27T18:59:44.939Z,63.60
2023-04-27T19:02:13.047Z,63.60
2023-04-27T19:04:45.445Z,63.60
2023-04-27T19:07:28.527Z,63.50
2023-04-27T19:09:56.688Z,63.60
2023-04-27T19:12:26.213Z,63.50
2023-04-27T19:14:54.273Z,63.50
2023-04-27T19:17:22.686Z,63.50
2023-04-27T19:19:51.170Z,63.50
2023-04-27T19:22:19.306Z,63.60
2023-04-27T19:24:47.411Z,63.50
2023-04-27T19:27:15.568Z,63.50
2023-04-27T19:29:52.071Z,63.50
2023-04-27T19:32:20.665Z,63.50
2023-04-27T19:34:49.550Z,63.40
2023-04-27T19:37:17.733Z,63.40
2023-04-27T19:39:48.743Z,63.50
2023-04-27T19:42:16.841Z,63.50
2023-04-27T19:44:44.956Z,63.50
2023-04-27T19:47:14.469Z,63.50
2023-04-27T19:49:42.551Z,63.40
2023-04-27T19:52:10.760Z,63.40
2023-04-27T19:54:39.051Z,63.40
2023-04-27T19:57:16.541Z,63.40
2023-04-27T19:59:44.615Z,63.40
2023-04-27T20:02:14.070Z,63.40
2023-04-27T20:04:43.218Z,63.40
2023-04-27T20:07:12.125Z,63.30
2023-04-27T20:09:40.260Z,63.40
2023-04-27T20:12:15.710Z,63.30
2023-04-27T20:14:52.085Z,63.40
2023-04-27T20:17:21.574Z,63.30
2023-04-27T20:19:49.858Z,63.30
2023-04-27T20:22:17.911Z,63.40
2023-04-27T20:24:46.010Z,63.20
2023-04-27T20:27:14.238Z,63.30
2023-04-27T20:29:46.816Z,63.30
2023-04-27T20:32:22.428Z,63.30
2023-04-27T20:34:50.510Z,63.20
2023-04-27T20:37:18.848Z,63.20
2023-04-27T20:39:46.971Z,63.20
2023-04-27T20:42:15.063Z,63.20
2023-04-27T20:44:46.058Z,63.10
2023-04-27T20:47:17.186Z,63.20
2023-04-27T20:49:46.649Z,63.10
2023-04-27T20:52:14.813Z,63.10
2023-04-27T20:54:42.943Z,63.10
2023-04-27T20:57:14.076Z,63.00
2023-04-27T20:59:42.300Z,63.00
2023-04-27T21:02:10.347Z,63.00
2023-04-27T21:04:39.520Z,63.00
2023-04-27T21:07:09.081Z,63.00
2023-04-27T21:09:38.726Z,62.90
2023-04-27T21:12:07.084Z,63.00
2023-04-27T21:14:35.204Z,62.90
2023-04-27T21:17:03.611Z,62.90
2023-04-27T21:19:31.999Z,62.90
2023-04-27T21:22:00.499Z,62.90
2023-04-27T21:24:29.971Z,62.90
2023-04-27T21:26:58.090Z,62.90
2023-04-27T21:29:26.180Z,62.90
2023-04-27T21:31:54.303Z,63.00
2023-04-27T21:34:22.365Z,62.80
2023-04-27T21:36:50.478Z,62.80
2023-04-27T21:39:28.663Z,62.90
2023-04-27T21:42:00.130Z,62.80
2023-04-27T21:44:28.222Z,62.80
2023-04-27T21:46:56.313Z,62.90
2023-04-27T21:49:24.403Z,62.90
2023-04-27T21:51:52.529Z,62.80
2023-04-27T21:54:20.656Z,62.80
2023-04-27T21:56:56.284Z,62.80
2023-04-27T21:59:25.744Z,62.80
2023-04-27T22:01:54.012Z,62.80
2023-04-27T22:04:22.696Z,62.80
2023-04-27T22:06:51.419Z,62.90
2023-04-27T22:09:19.595Z,62.80
2023-04-27T22:11:47.739Z,62.80
2023-04-27T22:14:17.143Z,62.80
2023-04-27T22:16:47.395Z,62.70
2023-04-27T22:19:15.508Z,62.90
2023-04-27T22:21:43.556Z,62.80
2023-04-27T22:24:11.606Z,62.80
2023-04-27T22:26:39.688Z,62.80
2023-04-27T22:29:07.760Z,62.80
2023-04-27T22:31:38.682Z,62.90
2023-04-27T22:34:08.150Z,62.70
2023-04-27T22:36:36.238Z,62.80
2023-04-27T22:39:04.360Z,62.80
2023-04-27T22:41:32.439Z,62.80
2023-04-27T22:44:04.949Z,62.80
2023-04-27T22:46:32.996Z,62.90
2023-04-27T22:49:01.708Z,62.70
2023-04-27T22:51:31.158Z,62.80
2023-04-27T22:53:59.236Z,62.80
2023-04-27T22:56:27.328Z,62.70
2023-04-27T22:58:55.798Z,62.80
2023-04-27T23:01:23.873Z,62.80
2023-04-27T23:03:55.606Z,62.80
2023-04-27T23:06:23.788Z,62.80
2023-04-27T23:08:53.251Z,62.80
2023-04-27T23:11:21.230Z,62.80
2023-04-27T23:13:50.754Z,62.70
2023-04-27T23:16:18.883Z,62.80
2023-04-27T23:18:46.918Z,62.80
2023-04-27T23:21:23.859Z,62.60
2023-04-27T23:23:53.309Z,62.80
2023-04-27T23:26:21.598Z,62.80
2023-04-27T23:28:49.775Z,62.80
2023-04-27T23:31:17.899Z,62.90
2023-04-27T23:33:45.973Z,62.80
2023-04-27T23:36:14.093Z,62.80
2023-04-27T23:38:42.166Z,62.80
2023-04-27T23:41:12.082Z,62.80
2023-04-27T23:43:40.744Z,62.80
2023-04-27T23:46:09.733Z,62.90
2023-04-27T23:48:37.879Z,62.80
2023-04-27T23:51:06.182Z,62.80
2023-04-27T23:53:40.193Z,63.00
2023-04-27T23:56:16.919Z,62.70
2023-04-27T23:58:46.388Z,62.80
